YSSY Airport Information

Runway Information
Runway 07 Length 8300 ft width 148 ft
Elevation 16 ft Threshold 0 ft Heading 74
Runway 25 Length 8300 ft Width 148 ft
Elevation 20 ft Threshold 324 ft Heading 254
Runway 16L Length 7999 ft width 148 ft
Elevation 16 ft Threshold 758 ft Heading 168
Runway 34R Length 7999 ft Width 148 ft
Elevation 13 ft Threshold 125 ft Heading 348
Runway 16R Length 12999 ft width 148 ft
Elevation 8 ft Threshold 279 ft Heading 168
Runway 34L Length 12999 ft Width 148 ft
Elevation 14 ft Threshold 0 ft Heading 348
Airport Frequencies
Type APP Name APP Frequency 135.1 MHZ
Type ATIS Name ATIS Frequency 126.25 MHZ
Type CLD Name CLNC DEL Frequency 133.8 MHZ
Type DEP Name DEP Frequency 123 MHZ
Type GND Name GND Frequency 121.7 MHZ
Type OPS Name RAAF AIR O Frequency 1123.5 MHZ
Type TWR Name TWR Frequency 120.5 MHZ
Airport Navaids
Type NDB Name Glenfield Frequency 428 KHZ
Type VOR-DME Name Sydney Frequency 112100 KHZ
Airport Weather Information & NOTAM
ADDS - METARS form results

(0123 UTC 26 February 2018)
 
METAR text: YSSY 260100Z 16016KT 9999 VCSH FEW016 BKN042 BKN055 20/15 Q1013 INTER 0100/0330 4000 SHRA BKN010 FM0100 MOD TURB BLW 5000FT
Conditions at: YSSY (SYDNEY INTL AIRP, AU) observed 0100 UTC 26 February 2018
Temperature: 20.0°C (68°F)
Dewpoint: 15.0°C (59°F) [RH = 73%]
Pressure (altimeter): 29.91 inches Hg (1013.0 mb)
Winds: from the SSE (160 degrees) at 18 MPH (16 knots; 8.3 m/s)
Visibility: 6 or more miles (10+ km)
Ceiling: 4200 feet AGL
Clouds: few clouds at 1600 feet AGL
broken clouds at 4200 feet AGL
broken clouds at 5500 feet AGL
Weather: VCSH  (showers in vicinity)

METAR text: YSSY 260048Z 16021G31KT 9999 FEW015 SCT032 BKN055 20/15 Q1014
Conditions at: YSSY (SYDNEY INTL AIRP, AU) observed 0048 UTC 26 February 2018
Temperature: 20.0°C (68°F)
Dewpoint: 15.0°C (59°F) [RH = 73%]
Pressure (altimeter): 29.94 inches Hg (1014.0 mb)
Winds: from the SSE (160 degrees) at 24 MPH (21 knots; 10.9 m/s)
gusting to 36 MPH (31 knots; 16.1 m/s)
Visibility: 6 or more miles (10+ km)
Ceiling: 5500 feet AGL
Clouds: few clouds at 1500 feet AGL
scattered clouds at 3200 feet AGL
broken clouds at 5500 feet AGL
Weather: no significant weather observed at this time

METAR text: YSSY 260030Z 16021KT 9999 -DZ FEW014 SCT030 BKN048 20/15 Q1013 INTER 0030/0330 4000 SHRA BKN010 FM0030 MOD TURB BLW 5000FT
Conditions at: YSSY (SYDNEY INTL AIRP, AU) observed 0030 UTC 26 February 2018
Temperature: 20.0°C (68°F)
Dewpoint: 15.0°C (59°F) [RH = 73%]
Pressure (altimeter): 29.91 inches Hg (1013.0 mb)
Winds: from the SSE (160 degrees) at 24 MPH (21 knots; 10.9 m/s)
Visibility: 6 or more miles (10+ km)
Ceiling: 4800 feet AGL
Clouds: few clouds at 1400 feet AGL
scattered clouds at 3000 feet AGL
broken clouds at 4800 feet AGL
Weather: -DZ  (light drizzle)